Time;durP1;ratioP1;P1;durP2;ratioP2;P2;SDS_P1;SDS_P2;PMS_P1;PMS_P2;Temp;Humidity;BMP_temperature;BMP_pressure;BME280_temperature;BME280_humidity;BME280_pressure;Samples;Min_cycle;Max_cycle;Signal;HPM_P1;HPM_P2
2022/05/29 00:02:23;;;;;;;;;;;8.90;99.90;;;;;;5061599;28;19925;-64
2022/05/29 00:04:50;;;;;;;;;;;8.80;99.90;;;;;;5055149;28;19925;-64
2022/05/29 00:07:17;;;;;;;;;;;8.80;99.90;;;;;;5060605;28;19947;-64
2022/05/29 00:09:47;;;;;;;;;;;8.70;99.90;;;;;;5060738;28;20348;-64
2022/05/29 00:12:16;;;;;;;;;;;8.70;99.90;;;;;;5061115;28;19960;-64
2022/05/29 00:14:43;;;;;;;;;;;8.60;99.90;;;;;;5064798;28;19929;-64
2022/05/29 00:17:10;;;;;;;;;;;8.50;99.90;;;;;;5052681;28;19974;-64
2022/05/29 00:19:36;;;;;;;;;;;8.60;99.90;;;;;;5059448;28;19928;-63
2022/05/29 00:22:04;;;;;;;;;;;8.50;99.90;;;;;;5063358;28;20273;-64
2022/05/29 00:24:30;;;;;;;;;;;8.40;99.90;;;;;;5064437;28;19925;-64
2022/05/29 00:26:57;;;;;;;;;;;8.30;99.90;;;;;;5064267;28;20391;-64
2022/05/29 00:29:25;;;;;;;;;;;8.30;99.90;;;;;;5064586;28;20003;-64
2022/05/29 00:31:52;;;;;;;;;;;8.20;99.90;;;;;;5063025;28;19981;-64
2022/05/29 00:34:19;;;;;;;;;;;8.20;99.90;;;;;;5056631;28;19925;-64
2022/05/29 00:36:46;;;;;;;;;;;8.20;99.90;;;;;;5065475;28;19928;-64
2022/05/29 00:39:14;;;;;;;;;;;8.20;99.90;;;;;;5058121;28;19928;-63
2022/05/29 00:41:41;;;;;;;;;;;8.20;99.90;;;;;;5056487;28;19978;-63
2022/05/29 00:44:13;;;;;;;;;;;8.20;99.90;;;;;;5065681;28;19924;-64
2022/05/29 00:46:43;;;;;;;;;;;8.10;99.90;;;;;;5051505;28;19925;-62
2022/05/29 00:49:11;;;;;;;;;;;8.10;99.90;;;;;;5048639;28;19924;-64
2022/05/29 00:51:39;;;;;;;;;;;8.00;99.90;;;;;;5057953;28;19925;-64
2022/05/29 00:54:06;;;;;;;;;;;8.00;99.90;;;;;;5060523;28;19929;-63
2022/05/29 00:56:33;;;;;;;;;;;7.90;99.90;;;;;;5060625;28;20412;-63
2022/05/29 00:59:01;;;;;;;;;;;7.90;99.90;;;;;;5062580;28;19925;-63
2022/05/29 01:01:28;;;;;;;;;;;7.90;99.90;;;;;;5062543;28;19932;-64
2022/05/29 01:03:56;;;;;;;;;;;7.80;99.90;;;;;;5048011;28;19925;-64
2022/05/29 01:06:23;;;;;;;;;;;7.80;99.90;;;;;;5065552;28;19934;-63
2022/05/29 01:08:50;;;;;;;;;;;7.70;99.90;;;;;;5060807;28;19951;-63
2022/05/29 01:11:23;;;;;;;;;;;7.70;99.90;;;;;;5066829;28;19925;-64
2022/05/29 01:13:54;;;;;;;;;;;7.70;99.90;;;;;;5060638;28;19924;-64
2022/05/29 01:16:24;;;;;;;;;;;7.70;99.90;;;;;;5064135;28;19931;-64
2022/05/29 01:18:58;;;;;;;;;;;7.70;99.90;;;;;;5056487;28;19978;-61
2022/05/29 01:21:51;;;;;;;;;;;7.70;99.90;;;;;;5057754;28;19929;-64
2022/05/29 01:24:32;;;;;;;;;;;7.70;99.90;;;;;;5053651;28;19925;-64
2022/05/29 01:27:06;;;;;;;;;;;7.70;99.90;;;;;;5060744;28;19928;-63
2022/05/29 01:29:42;;;;;;;;;;;7.70;99.90;;;;;;5062913;28;19924;-61
2022/05/29 01:32:12;;;;;;;;;;;7.60;99.90;;;;;;5054990;28;19978;-62
2022/05/29 01:34:41;;;;;;;;;;;7.50;99.90;;;;;;5065247;28;19931;-64
2022/05/29 01:37:13;;;;;;;;;;;7.40;99.90;;;;;;5059715;28;19975;-63
2022/05/29 01:39:47;;;;;;;;;;;7.30;99.90;;;;;;5066162;28;20396;-64
2022/05/29 01:42:16;;;;;;;;;;;7.20;99.90;;;;;;5049329;28;19924;-64
2022/05/29 01:44:46;;;;;;;;;;;7.10;99.90;;;;;;5067466;28;20395;-64
2022/05/29 01:47:15;;;;;;;;;;;7.10;99.90;;;;;;5060714;28;19925;-64
2022/05/29 01:49:47;;;;;;;;;;;7.10;99.90;;;;;;5043753;28;20113;-64
2022/05/29 01:52:16;;;;;;;;;;;7.10;99.90;;;;;;5045311;28;19978;-64
2022/05/29 01:54:45;;;;;;;;;;;7.10;99.90;;;;;;5059821;28;19925;-64
2022/05/29 01:57:14;;;;;;;;;;;7.00;99.90;;;;;;5058474;28;20268;-64
2022/05/29 01:59:44;;;;;;;;;;;7.00;99.90;;;;;;5059657;28;19925;-63
2022/05/29 02:02:14;;;;;;;;;;;6.90;99.90;;;;;;5063271;28;19932;-64
2022/05/29 02:04:43;;;;;;;;;;;6.90;99.90;;;;;;5052660;28;20016;-63
2022/05/29 02:10:00;;;;;;;;;;;6.80;99.90;;;;;;5062295;28;19927;-63
2022/05/29 02:12:28;;;;;;;;;;;6.90;99.90;;;;;;5062638;28;19936;-64
2022/05/29 02:14:57;;;;;;;;;;;6.90;99.90;;;;;;5056499;28;19931;-64
2022/05/29 02:17:27;;;;;;;;;;;6.90;99.90;;;;;;5055205;28;20435;-64
2022/05/29 02:19:58;;;;;;;;;;;6.80;99.90;;;;;;5050505;28;19978;-63
2022/05/29 02:22:27;;;;;;;;;;;6.70;99.90;;;;;;5065565;28;19924;-64
2022/05/29 02:24:56;;;;;;;;;;;6.70;99.90;;;;;;5052000;28;19925;-64
2022/05/29 02:27:27;;;;;;;;;;;6.70;99.90;;;;;;5062591;28;19928;-64
2022/05/29 02:29:53;;;;;;;;;;;6.70;99.90;;;;;;5060223;28;20036;-64
2022/05/29 02:32:23;;;;;;;;;;;6.60;99.90;;;;;;5062389;28;19928;-64
2022/05/29 02:34:57;;;;;;;;;;;6.60;99.90;;;;;;5061271;28;19925;-64
2022/05/29 02:37:28;;;;;;;;;;;6.60;99.90;;;;;;5059149;28;19925;-64
2022/05/29 02:39:58;;;;;;;;;;;6.60;99.90;;;;;;5050594;28;19935;-64
2022/05/29 02:42:29;;;;;;;;;;;6.60;99.90;;;;;;5056424;28;19931;-64
2022/05/29 02:45:03;;;;;;;;;;;6.70;99.90;;;;;;5056891;28;19932;-63
2022/05/29 02:47:33;;;;;;;;;;;6.70;99.90;;;;;;5063260;28;19925;-64
2022/05/29 02:50:17;;;;;;;;;;;6.80;99.90;;;;;;5058919;28;19925;-64
2022/05/29 02:52:44;;;;;;;;;;;6.80;99.90;;;;;;5056267;28;20396;-64
2022/05/29 02:55:11;;;;;;;;;;;6.80;99.90;;;;;;5046370;28;19925;-64
2022/05/29 02:57:38;;;;;;;;;;;6.80;99.90;;;;;;5060734;28;19935;-64
2022/05/29 03:00:11;;;;;;;;;;;6.70;99.90;;;;;;5061060;28;19947;-64
2022/05/29 03:02:39;;;;;;;;;;;6.70;99.90;;;;;;5059849;28;20363;-65
2022/05/29 03:05:14;;;;;;;;;;;6.70;99.90;;;;;;5061446;28;19928;-64
2022/05/29 03:07:45;;;;;;;;;;;6.60;99.90;;;;;;5067573;28;20472;-64
2022/05/29 03:10:15;;;;;;;;;;;6.70;99.90;;;;;;5049186;28;20350;-62
2022/05/29 03:12:48;;;;;;;;;;;6.50;99.90;;;;;;5055261;28;20355;-64
2022/05/29 03:15:19;;;;;;;;;;;6.50;99.90;;;;;;5051793;28;19924;-64
2022/05/29 03:17:51;;;;;;;;;;;6.40;99.90;;;;;;5062313;28;19970;-62
2022/05/29 03:20:23;;;;;;;;;;;6.30;99.90;;;;;;5060235;28;19931;-62
2022/05/29 03:22:53;;;;;;;;;;;6.30;99.90;;;;;;5064994;28;19924;-63
2022/05/29 03:25:22;;;;;;;;;;;6.40;99.90;;;;;;5064702;28;20292;-62
2022/05/29 03:27:49;;;;;;;;;;;6.50;99.90;;;;;;5065745;28;19981;-63
2022/05/29 03:30:18;;;;;;;;;;;6.60;99.90;;;;;;5063384;28;19924;-62
2022/05/29 03:32:45;;;;;;;;;;;6.70;99.90;;;;;;5057310;28;19975;-63
2022/05/29 03:35:16;;;;;;;;;;;6.80;99.90;;;;;;5062735;28;19932;-62
2022/05/29 03:37:45;;;;;;;;;;;6.90;99.90;;;;;;5062185;28;19970;-63
2022/05/29 03:40:12;;;;;;;;;;;7.00;99.90;;;;;;5059797;28;19925;-63
2022/05/29 03:42:39;;;;;;;;;;;7.10;99.90;;;;;;5067179;28;19986;-62
2022/05/29 03:45:07;;;;;;;;;;;7.20;99.90;;;;;;5058099;28;19932;-62
2022/05/29 03:47:34;;;;;;;;;;;7.30;99.90;;;;;;5067321;28;19925;-62
2022/05/29 03:50:01;;;;;;;;;;;7.30;99.90;;;;;;5063147;28;19924;-62
2022/05/29 03:52:27;;;;;;;;;;;7.40;99.90;;;;;;5055928;28;19925;-62
2022/05/29 03:54:56;;;;;;;;;;;7.50;99.90;;;;;;5058793;28;19924;-62
2022/05/29 03:57:23;;;;;;;;;;;7.50;99.90;;;;;;5061338;28;19971;-61
2022/05/29 03:59:49;;;;;;;;;;;7.60;99.90;;;;;;5056644;28;20346;-62
2022/05/29 04:02:16;;;;;;;;;;;7.60;99.90;;;;;;5061478;28;19932;-62
2022/05/29 04:04:43;;;;;;;;;;;7.70;99.90;;;;;;5069032;28;20283;-63
2022/05/29 04:07:10;;;;;;;;;;;7.70;99.90;;;;;;5061603;28;19925;-62
2022/05/29 04:12:22;;;;;;;;;;;7.60;99.90;;;;;;5056973;28;19921;-63
2022/05/29 04:14:49;;;;;;;;;;;7.70;99.90;;;;;;5054802;28;20281;-62
2022/05/29 04:17:17;;;;;;;;;;;7.70;99.90;;;;;;5067264;28;20357;-62
2022/05/29 04:19:44;;;;;;;;;;;7.70;99.90;;;;;;5063472;28;19925;-63
2022/05/29 04:22:12;;;;;;;;;;;7.90;99.90;;;;;;5053708;28;19924;-62
2022/05/29 04:24:38;;;;;;;;;;;7.90;99.90;;;;;;5058963;28;19929;-62
2022/05/29 04:27:08;;;;;;;;;;;8.10;99.90;;;;;;5063672;28;20435;-62
2022/05/29 04:29:36;;;;;;;;;;;8.20;99.90;;;;;;5041628;28;19925;-63
2022/05/29 04:34:47;;;;;;;;;;;8.20;99.90;;;;;;5059354;28;19920;-62
2022/05/29 04:37:14;;;;;;;;;;;8.40;99.90;;;;;;5064704;28;19924;-63
2022/05/29 04:39:41;;;;;;;;;;;8.40;99.90;;;;;;5063895;28;20332;-70
2022/05/29 04:42:08;;;;;;;;;;;8.60;99.90;;;;;;5055385;28;19932;-62
2022/05/29 04:44:36;;;;;;;;;;;8.60;99.90;;;;;;5059014;28;19928;-61
2022/05/29 04:47:03;;;;;;;;;;;8.70;99.90;;;;;;5060412;28;19929;-61
2022/05/29 04:49:31;;;;;;;;;;;8.70;99.90;;;;;;5061782;28;19929;-62
2022/05/29 04:51:58;;;;;;;;;;;8.70;99.90;;;;;;5049343;28;19925;-63
2022/05/29 04:54:25;;;;;;;;;;;8.90;99.90;;;;;;5063630;28;19924;-63
2022/05/29 04:56:52;;;;;;;;;;;9.00;99.90;;;;;;5057957;28;19925;-63
2022/05/29 04:59:19;;;;;;;;;;;9.10;99.90;;;;;;5062118;28;19954;-63
2022/05/29 05:01:47;;;;;;;;;;;9.10;99.90;;;;;;5051433;28;20281;-62
2022/05/29 05:04:14;;;;;;;;;;;9.20;99.90;;;;;;5046276;28;19925;-62
2022/05/29 05:06:40;;;;;;;;;;;9.20;99.90;;;;;;5060982;28;19924;-63
2022/05/29 05:09:07;;;;;;;;;;;9.30;99.90;;;;;;5054895;28;19950;-63
2022/05/29 05:11:34;;;;;;;;;;;9.40;99.90;;;;;;5061984;28;19924;-63
2022/05/29 05:14:01;;;;;;;;;;;9.50;99.90;;;;;;5051145;28;20387;-63
2022/05/29 05:16:28;;;;;;;;;;;9.60;99.90;;;;;;5063644;28;19925;-65
2022/05/29 05:18:56;;;;;;;;;;;9.60;99.90;;;;;;5057507;28;19925;-65
2022/05/29 05:21:23;;;;;;;;;;;9.70;99.90;;;;;;5063913;28;19960;-65
2022/05/29 05:23:50;;;;;;;;;;;9.60;99.90;;;;;;5050821;28;19972;-65
2022/05/29 05:26:17;;;;;;;;;;;9.60;99.90;;;;;;5049879;28;19924;-65
2022/05/29 05:28:43;;;;;;;;;;;9.70;99.90;;;;;;5055133;28;19924;-65
2022/05/29 05:31:10;;;;;;;;;;;9.80;99.90;;;;;;5047646;28;19936;-64
2022/05/29 05:33:37;;;;;;;;;;;9.80;99.90;;;;;;5049064;28;20448;-65
2022/05/29 05:36:06;;;;;;;;;;;10.00;99.90;;;;;;5043663;28;19925;-64
2022/05/29 05:38:33;;;;;;;;;;;10.00;99.90;;;;;;5045276;28;20468;-64
2022/05/29 05:41:00;;;;;;;;;;;10.00;99.90;;;;;;5055627;28;19925;-65
2022/05/29 05:43:26;;;;;;;;;;;10.00;99.90;;;;;;5051975;28;19982;-65
2022/05/29 05:45:53;;;;;;;;;;;10.10;99.90;;;;;;5044234;28;19929;-65
2022/05/29 05:48:20;;;;;;;;;;;10.20;99.90;;;;;;5043957;28;20400;-65
2022/05/29 05:50:47;;;;;;;;;;;10.40;99.90;;;;;;5045241;28;19925;-65
2022/05/29 05:53:15;;;;;;;;;;;10.60;99.90;;;;;;5046173;28;19924;-62
2022/05/29 05:55:42;;;;;;;;;;;10.60;99.90;;;;;;5047992;28;19925;-63
2022/05/29 05:58:08;;;;;;;;;;;10.70;99.90;;;;;;5049375;28;19925;-62
2022/05/29 06:00:35;;;;;;;;;;;10.70;99.90;;;;;;5047938;28;19925;-63
2022/05/29 06:03:02;;;;;;;;;;;10.80;99.90;;;;;;5054885;28;19928;-63
2022/05/29 06:05:29;;;;;;;;;;;10.70;99.90;;;;;;5048734;28;19932;-63
2022/05/29 06:07:56;;;;;;;;;;;10.90;99.90;;;;;;5051344;28;19924;-63
2022/05/29 06:10:24;;;;;;;;;;;10.90;99.90;;;;;;5065503;28;19925;-63
2022/05/29 06:12:51;;;;;;;;;;;10.90;99.90;;;;;;5053447;28;19929;-63
2022/05/29 06:15:17;;;;;;;;;;;10.90;99.90;;;;;;5050257;28;19952;-62
2022/05/29 06:17:44;;;;;;;;;;;11.00;99.90;;;;;;5054299;28;19932;-71
2022/05/29 06:20:12;;;;;;;;;;;11.00;99.90;;;;;;5050034;28;19929;-68
2022/05/29 06:22:39;;;;;;;;;;;11.00;99.90;;;;;;5049262;28;19924;-75
2022/05/29 06:25:07;;;;;;;;;;;11.20;99.90;;;;;;5046569;28;19929;-71
2022/05/29 06:27:37;;;;;;;;;;;11.40;99.90;;;;;;5049971;28;20011;-65
2022/05/29 06:30:05;;;;;;;;;;;11.60;99.90;;;;;;5044922;28;19925;-64
2022/05/29 06:32:32;;;;;;;;;;;11.70;99.90;;;;;;5042246;28;20343;-65
2022/05/29 06:34:59;;;;;;;;;;;11.70;99.90;;;;;;5045706;28;19929;-67
2022/05/29 06:37:26;;;;;;;;;;;11.70;99.90;;;;;;5049955;28;19924;-64
2022/05/29 06:39:53;;;;;;;;;;;11.80;99.90;;;;;;5046276;28;19936;-62
2022/05/29 06:42:19;;;;;;;;;;;11.80;99.90;;;;;;5048285;28;20400;-63
2022/05/29 06:44:48;;;;;;;;;;;11.70;99.90;;;;;;5054891;28;19931;-68
2022/05/29 06:47:15;;;;;;;;;;;11.60;99.90;;;;;;5052455;28;19932;-71
2022/05/29 06:49:42;;;;;;;;;;;11.50;99.90;;;;;;5056489;28;19925;-70
2022/05/29 06:52:10;;;;;;;;;;;11.40;99.90;;;;;;5053669;28;19932;-70
2022/05/29 06:54:37;;;;;;;;;;;11.40;99.90;;;;;;5050874;28;19948;-71
2022/05/29 06:57:06;;;;;;;;;;;11.40;99.90;;;;;;5059108;28;19933;-73
2022/05/29 07:06:58;;;;;;;;;;;11.60;99.90;;;;;;5060191;28;19925;-64
2022/05/29 07:07:51;;;;;;;;;;;11.80;99.90;;;;;;5051724;28;19925;-66
2022/05/29 07:10:18;;;;;;;;;;;11.80;99.90;;;;;;5054217;28;20323;-64
2022/05/29 07:12:45;;;;;;;;;;;11.60;99.90;;;;;;5054579;28;20352;-65
2022/05/29 07:15:12;;;;;;;;;;;11.50;99.90;;;;;;5055611;28;19933;-65
2022/05/29 07:17:40;;;;;;;;;;;11.50;99.90;;;;;;5055473;28;19932;-65
2022/05/29 07:20:08;;;;;;;;;;;11.50;99.90;;;;;;5050007;28;19931;-65
2022/05/29 07:22:35;;;;;;;;;;;11.40;99.90;;;;;;5058508;28;19925;-65
2022/05/29 07:25:02;;;;;;;;;;;11.40;99.90;;;;;;5054100;28;19925;-65
2022/05/29 07:27:28;;;;;;;;;;;11.30;99.90;;;;;;5058492;28;19939;-64
2022/05/29 07:29:55;;;;;;;;;;;11.00;99.90;;;;;;5052160;28;19924;-65
2022/05/29 07:32:23;;;;;;;;;;;11.10;99.90;;;;;;5058689;28;19933;-67
2022/05/29 07:34:52;;;;;;;;;;;11.10;99.90;;;;;;5052532;28;20304;-73
2022/05/29 07:37:20;;;;;;;;;;;11.10;99.90;;;;;;5052006;28;19932;-66
2022/05/29 07:39:48;;;;;;;;;;;11.10;99.90;;;;;;5053266;28;20445;-65
2022/05/29 07:44:59;;;;;;;;;;;11.30;99.90;;;;;;5051631;28;20273;-73
2022/05/29 07:47:27;;;;;;;;;;;11.40;99.90;;;;;;5055879;28;19929;-65
2022/05/29 07:49:57;;;;;;;;;;;11.30;99.90;;;;;;5051896;28;19935;-65
2022/05/29 07:52:23;;;;;;;;;;;11.40;99.90;;;;;;5054971;28;19933;-65
2022/05/29 07:54:52;;;;;;;;;;;11.40;99.90;;;;;;5053135;28;19956;-65
2022/05/29 07:57:19;;;;;;;;;;;11.40;99.90;;;;;;5060744;28;19931;-65
2022/05/29 07:59:46;;;;;;;;;;;11.40;99.90;;;;;;5046487;28;19929;-65
2022/05/29 08:02:13;;;;;;;;;;;11.60;99.90;;;;;;5060022;28;20289;-65
2022/05/29 08:04:40;;;;;;;;;;;11.70;99.90;;;;;;5053216;28;19948;-65
2022/05/29 08:07:08;;;;;;;;;;;11.80;99.90;;;;;;5076586;28;20011;-65
2022/05/29 08:09:35;;;;;;;;;;;11.90;99.90;;;;;;5051993;28;19925;-65
2022/05/29 08:12:02;;;;;;;;;;;12.20;99.90;;;;;;5067714;28;19935;-65
2022/05/29 08:14:29;;;;;;;;;;;12.30;99.90;;;;;;5050356;28;19932;-65
2022/05/29 08:16:56;;;;;;;;;;;12.40;99.90;;;;;;5050654;28;19932;-65
2022/05/29 08:19:23;;;;;;;;;;;12.50;99.90;;;;;;5054973;28;19932;-65
2022/05/29 08:21:50;;;;;;;;;;;12.50;99.90;;;;;;5049716;28;19998;-65
2022/05/29 08:32:31;;;;;;;;;;;12.60;99.90;;;;;;5045722;28;19921;-64
2022/05/29 08:35:00;;;;;;;;;;;12.60;99.90;;;;;;5055924;28;20401;-64
2022/05/29 08:37:27;;;;;;;;;;;12.60;99.90;;;;;;5059131;28;19929;-64
2022/05/29 08:39:55;;;;;;;;;;;12.70;99.90;;;;;;5049056;28;19936;-65
2022/05/29 08:42:23;;;;;;;;;;;13.00;99.90;;;;;;5052886;28;20363;-65
2022/05/29 08:44:51;;;;;;;;;;;13.10;99.90;;;;;;5057718;28;19932;-64
2022/05/29 08:47:27;;;;;;;;;;;13.40;99.90;;;;;;5050910;28;19925;-63
2022/05/29 08:49:55;;;;;;;;;;;13.90;99.90;;;;;;5054361;28;19925;-63
2022/05/29 08:52:31;;;;;;;;;;;13.80;99.90;;;;;;5053718;28;19962;-63
2022/05/29 08:55:01;;;;;;;;;;;13.70;99.90;;;;;;5050770;28;20335;-65
2022/05/29 08:57:44;;;;;;;;;;;14.00;99.90;;;;;;5047548;28;19933;-65
2022/05/29 09:00:15;;;;;;;;;;;14.00;99.90;;;;;;5058391;28;19924;-65
2022/05/29 09:02:47;;;;;;;;;;;14.00;99.90;;;;;;5046471;28;19925;-65
2022/05/29 09:05:19;;;;;;;;;;;14.20;99.90;;;;;;5053884;28;20400;-65
2022/05/29 09:07:46;;;;;;;;;;;14.40;99.90;;;;;;5055472;28;19925;-65
2022/05/29 09:10:17;;;;;;;;;;;14.30;99.90;;;;;;5053487;28;19929;-65
2022/05/29 09:12:46;;;;;;;;;;;14.00;99.90;;;;;;5053395;28;19975;-66
2022/05/29 09:15:15;;;;;;;;;;;14.10;99.90;;;;;;5041956;28;19936;-65
2022/05/29 09:17:45;;;;;;;;;;;14.20;99.90;;;;;;5054947;28;19924;-64
2022/05/29 09:20:17;;;;;;;;;;;14.40;99.90;;;;;;5051620;28;19925;-65
2022/05/29 09:22:44;;;;;;;;;;;14.40;99.90;;;;;;5040583;28;19936;-72
2022/05/29 09:25:13;;;;;;;;;;;14.90;99.90;;;;;;5052933;28;19924;-70
2022/05/29 09:27:43;;;;;;;;;;;15.10;99.90;;;;;;5049036;28;19932;-67
2022/05/29 09:30:10;;;;;;;;;;;15.50;99.90;;;;;;5054999;28;20374;-65
2022/05/29 09:32:43;;;;;;;;;;;15.50;99.90;;;;;;5057385;28;19928;-66
2022/05/29 09:35:12;;;;;;;;;;;15.10;99.90;;;;;;5056994;28;19924;-71
2022/05/29 09:37:44;;;;;;;;;;;14.70;99.90;;;;;;5054622;28;19932;-69
2022/05/29 09:40:12;;;;;;;;;;;14.50;99.90;;;;;;5053314;28;19951;-71
2022/05/29 09:42:40;;;;;;;;;;;14.40;99.90;;;;;;5053922;28;19970;-65
2022/05/29 09:45:15;;;;;;;;;;;14.20;99.90;;;;;;5055116;28;19936;-65
2022/05/29 09:50:24;;;;;;;;;;;14.10;99.90;;;;;;5014822;28;19963;-66
2022/05/29 09:52:51;;;;;;;;;;;14.10;99.90;;;;;;5055949;28;19924;-66
2022/05/29 09:55:24;;;;;;;;;;;14.20;99.90;;;;;;5062120;28;19929;-65
2022/05/29 09:57:53;;;;;;;;;;;14.20;99.90;;;;;;5058503;28;19928;-66
2022/05/29 10:00:27;;;;;;;;;;;14.40;99.90;;;;;;5049124;28;20035;-65
2022/05/29 10:02:54;;;;;;;;;;;14.50;99.90;;;;;;5058772;28;20007;-65
2022/05/29 10:05:24;;;;;;;;;;;14.50;99.90;;;;;;5053442;28;19931;-64
2022/05/29 10:07:52;;;;;;;;;;;15.00;99.90;;;;;;5059352;28;19932;-64
2022/05/29 10:10:29;;;;;;;;;;;14.90;99.90;;;;;;5054775;28;19925;-63
2022/05/29 10:12:57;;;;;;;;;;;15.10;99.90;;;;;;5055945;28;19932;-63
2022/05/29 10:15:36;;;;;;;;;;;15.60;99.90;;;;;;5058186;28;19978;-64
2022/05/29 10:18:05;;;;;;;;;;;15.70;99.90;;;;;;5057228;28;19928;-64
2022/05/29 10:20:33;;;;;;;;;;;15.80;99.90;;;;;;5054067;28;19924;-63
2022/05/29 10:23:01;;;;;;;;;;;16.10;99.90;;;;;;5052029;28;19943;-64
2022/05/29 10:25:31;;;;;;;;;;;16.00;99.90;;;;;;5050443;28;19924;-66
2022/05/29 10:27:59;;;;;;;;;;;16.00;99.90;;;;;;5056764;28;19979;-66
2022/05/29 10:30:29;;;;;;;;;;;15.90;99.90;;;;;;5057266;28;19978;-64
2022/05/29 10:33:00;;;;;;;;;;;15.90;99.90;;;;;;5056635;28;19990;-64
2022/05/29 10:35:28;;;;;;;;;;;15.80;99.90;;;;;;5059898;28;19932;-63
2022/05/29 10:37:55;;;;;;;;;;;15.70;99.90;;;;;;5055469;28;19952;-64
2022/05/29 10:40:24;;;;;;;;;;;15.80;99.90;;;;;;5047869;28;19924;-64
2022/05/29 10:42:52;;;;;;;;;;;16.00;99.90;;;;;;5075524;22;19929;-64
2022/05/29 10:45:20;;;;;;;;;;;15.90;99.90;;;;;;5047731;28;20392;-64
2022/05/29 10:47:52;;;;;;;;;;;15.70;99.90;;;;;;5048714;28;19925;-65
2022/05/29 10:50:24;;;;;;;;;;;15.30;99.90;;;;;;5041023;28;19931;-65
2022/05/29 10:52:57;;;;;;;;;;;14.80;99.90;;;;;;5060669;28;19925;-66
2022/05/29 10:55:29;;;;;;;;;;;14.30;99.90;;;;;;5067645;28;19934;-65
2022/05/29 10:58:02;;;;;;;;;;;14.00;99.90;;;;;;5035964;28;20336;-65
2022/05/29 11:00:37;;;;;;;;;;;13.90;99.90;;;;;;5043388;28;19925;-66
2022/05/29 11:03:19;;;;;;;;;;;13.80;99.90;;;;;;5064548;28;20039;-65
2022/05/29 11:05:54;;;;;;;;;;;13.70;99.90;;;;;;5033669;28;19921;-66
2022/05/29 11:08:26;;;;;;;;;;;13.70;99.90;;;;;;5037014;28;19928;-65
2022/05/29 11:10:57;;;;;;;;;;;13.70;99.90;;;;;;5032037;28;20047;-65
2022/05/29 11:13:28;;;;;;;;;;;13.70;99.90;;;;;;5067170;28;19933;-64
2022/05/29 11:16:03;;;;;;;;;;;13.70;99.90;;;;;;5039069;28;19929;-65
2022/05/29 11:18:39;;;;;;;;;;;13.70;99.90;;;;;;5031048;28;19929;-65
2022/05/29 11:21:14;;;;;;;;;;;13.70;99.90;;;;;;5038227;28;19936;-63
2022/05/29 11:23:51;;;;;;;;;;;13.50;99.90;;;;;;5027444;28;19926;-63
2022/05/29 11:26:24;;;;;;;;;;;13.50;99.90;;;;;;5029072;28;19926;-67
2022/05/29 11:29:17;;;;;;;;;;;13.50;99.90;;;;;;5029893;28;19925;-67
2022/05/29 11:31:48;;;;;;;;;;;13.60;99.90;;;;;;5028061;28;19934;-67
2022/05/29 11:34:21;;;;;;;;;;;13.80;99.90;;;;;;5050348;28;19929;-63
2022/05/29 11:36:56;;;;;;;;;;;14.10;99.90;;;;;;5071295;28;19929;-67
2022/05/29 11:39:25;;;;;;;;;;;14.60;99.90;;;;;;5037833;28;19936;-64
2022/05/29 11:41:53;;;;;;;;;;;15.90;99.90;;;;;;5042083;28;19926;-64
2022/05/29 11:44:22;;;;;;;;;;;17.50;99.90;;;;;;5072329;28;20385;-64
2022/05/29 11:52:27;;;;;;;;;;;18.70;99.90;;;;;;5053208;28;19922;-63
2022/05/29 11:54:57;;;;;;;;;;;18.30;99.90;;;;;;5039323;28;19933;-64
2022/05/29 11:57:30;;;;;;;;;;;18.70;99.90;;;;;;5023163;28;19925;-64
2022/05/29 12:00:01;;;;;;;;;;;20.40;99.90;;;;;;5028568;28;19933;-64
2022/05/29 12:02:32;;;;;;;;;;;21.60;99.90;;;;;;5065691;28;19925;-66
2022/05/29 12:05:02;;;;;;;;;;;21.90;99.90;;;;;;5034929;28;19929;-67
2022/05/29 12:07:33;;;;;;;;;;;21.70;99.90;;;;;;5055761;28;19925;-63
2022/05/29 12:10:02;;;;;;;;;;;21.00;99.90;;;;;;5065029;28;19983;-64
2022/05/29 12:12:32;;;;;;;;;;;20.60;99.90;;;;;;5065589;28;20340;-63
2022/05/29 12:15:00;;;;;;;;;;;20.70;99.90;;;;;;5028314;28;20364;-62
2022/05/29 12:17:30;;;;;;;;;;;20.00;99.90;;;;;;5050418;28;20324;-63
2022/05/29 12:20:02;;;;;;;;;;;19.70;99.90;;;;;;5038538;28;19925;-64
2022/05/29 12:22:31;;;;;;;;;;;20.00;99.90;;;;;;5038572;28;19929;-64
2022/05/29 12:24:58;;;;;;;;;;;19.70;99.90;;;;;;5073142;28;19960;-64
2022/05/29 12:27:26;;;;;;;;;;;19.10;99.90;;;;;;5068105;28;19928;-63
2022/05/29 12:29:54;;;;;;;;;;;18.40;99.90;;;;;;5073081;28;19925;-63
2022/05/29 12:32:22;;;;;;;;;;;18.50;99.90;;;;;;5037289;28;19936;-63
2022/05/29 12:34:50;;;;;;;;;;;18.10;99.90;;;;;;5076460;28;19926;-64
2022/05/29 12:37:24;;;;;;;;;;;18.00;99.90;;;;;;5071589;28;19943;-63
2022/05/29 12:40:08;;;;;;;;;;;18.10;99.90;;;;;;5040065;28;19925;-63
2022/05/29 12:42:44;;;;;;;;;;;18.30;99.90;;;;;;5031446;28;19948;-63
2022/05/29 12:45:23;;;;;;;;;;;18.60;99.90;;;;;;5036205;28;19925;-63
2022/05/29 12:48:08;;;;;;;;;;;18.70;99.90;;;;;;5068252;28;20289;-63
2022/05/29 12:50:43;;;;;;;;;;;18.40;99.90;;;;;;5034059;28;19928;-63
2022/05/29 12:53:16;;;;;;;;;;;18.20;99.90;;;;;;5075922;28;19925;-63
2022/05/29 12:55:55;;;;;;;;;;;17.50;99.90;;;;;;5069091;28;19925;-64
2022/05/29 12:58:41;;;;;;;;;;;17.00;99.90;;;;;;5037044;28;19925;-63
2022/05/29 13:01:18;;;;;;;;;;;16.70;99.90;;;;;;5040361;28;19925;-63
2022/05/29 13:03:56;;;;;;;;;;;16.60;99.90;;;;;;5037615;28;19925;-67
2022/05/29 13:06:32;;;;;;;;;;;16.70;99.90;;;;;;5074955;28;20392;-63
2022/05/29 13:09:12;;;;;;;;;;;16.50;99.90;;;;;;5053127;28;19971;-63
2022/05/29 13:11:47;;;;;;;;;;;16.20;99.90;;;;;;5037130;28;19932;-64
2022/05/29 13:14:17;;;;;;;;;;;16.10;99.90;;;;;;5035738;28;19925;-64
2022/05/29 13:16:44;;;;;;;;;;;16.20;99.90;;;;;;5034365;28;19933;-64
2022/05/29 13:19:15;;;;;;;;;;;16.50;99.90;;;;;;5052205;28;19933;-63
2022/05/29 13:21:52;;;;;;;;;;;16.60;99.90;;;;;;5034651;28;20028;-63
2022/05/29 13:24:20;;;;;;;;;;;16.10;99.90;;;;;;5031263;28;20455;-64
2022/05/29 13:27:08;;;;;;;;;;;15.40;99.90;;;;;;5035744;28;19933;-64
2022/05/29 13:29:40;;;;;;;;;;;14.70;99.90;;;;;;5072905;28;19931;-63
2022/05/29 13:32:17;;;;;;;;;;;14.00;99.90;;;;;;5068770;28;19974;-63
2022/05/29 13:34:46;;;;;;;;;;;13.60;99.90;;;;;;5037532;28;19925;-63
2022/05/29 13:37:22;;;;;;;;;;;13.20;99.90;;;;;;5032600;28;19929;-64
2022/05/29 13:39:53;;;;;;;;;;;13.10;99.90;;;;;;5030032;28;19925;-63
2022/05/29 13:42:26;;;;;;;;;;;12.90;99.90;;;;;;5031144;28;19929;-63
2022/05/29 13:44:53;;;;;;;;;;;12.70;99.90;;;;;;5033343;28;19932;-63
2022/05/29 13:47:30;;;;;;;;;;;12.60;99.90;;;;;;5041881;28;19975;-63
2022/05/29 13:49:58;;;;;;;;;;;12.70;99.90;;;;;;5037253;28;19936;-63
2022/05/29 13:52:27;;;;;;;;;;;12.60;99.90;;;;;;5035005;28;19983;-64
2022/05/29 13:55:01;;;;;;;;;;;12.60;99.90;;;;;;5032190;28;19925;-63
2022/05/29 14:06:20;;;;;;;;;;;12.50;99.90;;;;;;5032567;28;20392;-63
2022/05/29 14:08:52;;;;;;;;;;;12.40;99.90;;;;;;5039078;28;20380;-62
2022/05/29 14:11:19;;;;;;;;;;;12.50;99.90;;;;;;5070230;28;19925;-63
2022/05/29 14:13:47;;;;;;;;;;;12.60;99.90;;;;;;5043686;28;20048;-63
2022/05/29 14:16:33;;;;;;;;;;;12.50;99.90;;;;;;5032482;28;19925;-63
2022/05/29 14:19:07;;;;;;;;;;;12.60;99.90;;;;;;5042288;28;20408;-63
2022/05/29 14:21:51;;;;;;;;;;;12.60;99.90;;;;;;5070547;28;19929;-63
2022/05/29 14:24:27;;;;;;;;;;;12.60;99.90;;;;;;5049869;28;20032;-63
2022/05/29 14:27:02;;;;;;;;;;;12.60;99.90;;;;;;5068918;28;19925;-63
2022/05/29 14:29:34;;;;;;;;;;;12.80;99.90;;;;;;5058924;28;19925;-63
2022/05/29 14:32:08;;;;;;;;;;;12.90;99.90;;;;;;5040212;28;19925;-63
2022/05/29 14:34:53;;;;;;;;;;;13.00;99.90;;;;;;5050808;28;20454;-63
2022/05/29 14:37:30;;;;;;;;;;;13.40;99.90;;;;;;5067532;28;19924;-64
2022/05/29 14:39:58;;;;;;;;;;;13.90;99.90;;;;;;5067729;28;19975;-63
2022/05/29 14:42:26;;;;;;;;;;;14.50;99.90;;;;;;5077368;28;19925;-63
2022/05/29 14:44:57;;;;;;;;;;;14.90;99.90;;;;;;5035032;28;19941;-63
2022/05/29 14:47:27;;;;;;;;;;;15.30;99.90;;;;;;5068989;28;19924;-63
2022/05/29 14:50:00;;;;;;;;;;;15.90;99.90;;;;;;5068220;28;19932;-63
2022/05/29 14:52:31;;;;;;;;;;;16.90;99.90;;;;;;5069262;28;19960;-64
2022/05/29 14:55:04;;;;;;;;;;;17.70;99.90;;;;;;5033233;28;19948;-63
2022/05/29 14:57:31;;;;;;;;;;;17.80;99.90;;;;;;5073534;28;19929;-64
2022/05/29 15:00:00;;;;;;;;;;;18.20;99.90;;;;;;5033419;28;19926;-64
2022/05/29 15:02:30;;;;;;;;;;;18.70;99.90;;;;;;5042158;28;19947;-63
2022/05/29 15:05:02;;;;;;;;;;;18.40;99.90;;;;;;5042247;28;20354;-63
2022/05/29 15:10:33;;;;;;;;;;;19.30;99.90;;;;;;5048592;28;19927;-64
2022/05/29 15:13:06;;;;;;;;;;;19.40;99.90;;;;;;5044603;28;19932;-63
2022/05/29 15:15:37;;;;;;;;;;;18.70;99.90;;;;;;5073751;28;19970;-63
2022/05/29 15:18:08;;;;;;;;;;;17.60;99.90;;;;;;5071473;28;19925;-63
2022/05/29 15:26:13;;;;;;;;;;;14.60;99.90;;;;;;5069460;28;19921;-63
2022/05/29 15:28:43;;;;;;;;;;;14.00;99.90;;;;;;5079105;28;20372;-63